Date,TemperatureHighF,TemperatureAvgF,TemperatureLowF,DewpointHighF,DewpointAvgF,DewpointLowF,HumidityHigh,HumidityAvg,HumidityLow,PressureMaxIn,PressureMinIn,WindSpeedMaxMPH,WindSpeedAvgMPH,GustSpeedMaxMPH,PrecipitationSumIn
2013-1-1,37,32,22,-100,-100,-100,0,0,100,30.04,29.88,3,-953,11,0.00
2013-1-2,31,24,16,-100,-100,-100,0,0,100,30.20,30.03,7,-909,10,0.00
2013-1-3,33,24,15,-100,-100,-100,0,0,100,30.21,30.08,0,-999,9,0.00
2013-1-4,37,31,21,-100,-100,-100,0,0,100,30.09,29.97,7,-602,14,0.00
2013-1-5,41,32,24,-100,-100,-100,0,0,100,30.31,30.04,0,-999,13,0.00
2013-1-6,43,33,27,-100,-100,-100,0,0,100,30.22,29.99,4,-864,11,0.00
2013-1-7,43,32,21,-100,-100,-100,0,0,100,30.40,30.07,5,-830,10,0.00
2013-1-8,44,28,19,-100,-100,-100,0,0,100,30.40,30.35,0,-999,8,0.00
2013-1-9,38,29,20,-100,-100,-100,0,0,100,30.40,30.16,0,-999,5,0.00
2013-1-10,46,35,29,-100,-100,-100,0,0,100,30.55,30.26,0,-999,0,0.00
2013-1-11,41,35,29,-100,-100,-100,0,0,100,30.54,30.13,0,-999,0,0.00
2013-1-12,42,38,36,-100,-100,-100,0,0,100,30.19,30.13,0,-999,0,0.00
2013-1-13,46,42,38,-100,-100,-100,0,0,100,30.16,30.01,0,-999,8,0.00
2013-1-14,54,45,34,-100,-100,-100,0,0,100,30.32,29.91,11,-706,15,0.00
2013-1-15,36,34,32,-100,-100,-100,0,0,100,30.36,30.23,0,-999,8,0.00
2013-1-16,33,31,29,-100,-100,-100,0,0,100,30.23,29.86,7,-957,0,0.00
2013-1-17,41,34,31,-100,-100,-100,0,0,100,30.11,29.96,4,-857,10,0.00
2013-1-18,32,26,21,-100,-100,-100,0,0,100,30.45,30.03,8,-812,16,0.00
2013-1-19,44,33,20,-100,-100,-100,0,0,100,30.38,29.91,7,-848,14,0.00
2013-1-20,50,34,25,-100,-100,-100,0,0,100,30.07,29.73,10,-632,16,0.00
2013-1-21,28,24,20,-100,-100,-100,0,0,100,30.09,29.87,3,-874,12,0.00
2013-1-22,21,16,10,-100,-100,-100,0,0,100,30.22,29.86,6,-610,15,0.00
2013-1-23,19,11,5,-100,-100,-100,0,0,100,30.25,30.17,5,-875,13,0.00
2013-1-24,23,13,4,-100,-100,-100,0,0,100,30.44,30.14,8,-832,17,0.00
2013-1-25,21,14,7,-100,-100,-100,0,0,100,30.45,30.08,0,-999,11,0.00
2013-1-26,26,15,5,-100,-100,-100,0,0,100,30.39,30.07,10,-818,14,0.00
2013-1-27,33,19,6,-100,-100,-100,0,0,100,30.53,30.39,6,-915,11,0.00
2013-1-28,32,26,16,-100,-100,-100,0,0,100,30.49,30.02,6,-955,11,0.00
2013-1-29,48,40,32,-100,-100,-100,0,0,100,30.12,30.03,5,-942,11,0.00
2013-1-30,61,46,36,-100,-100,-100,0,0,100,30.07,29.44,7,-912,18,0.00
2013-1-31,48,36,27,-100,-100,-100,0,0,100,29.81,29.35,11,-183,21,0.00
2013-2-1,31,24,20,-100,-100,-100,0,0,100,30.24,29.81,9,-623,16,0.00
2013-2-2,23,19,12,-100,-100,-100,0,0,100,30.29,30.05,13,-791,17,0.00
2013-2-3,27,19,12,-100,-100,-100,0,0,100,30.05,29.81,0,-999,7,0.00
2013-2-4,29,22,16,-100,-100,-100,0,0,100,29.99,29.84,3,-907,12,0.00
2013-2-5,30,26,23,-100,-100,-100,0,0,100,29.98,29.90,3,-956,6,0.00
2013-2-6,38,29,22,-100,-100,-100,0,0,100,30.36,29.93,10,-728,10,0.00
2013-2-7,32,24,15,-100,-100,-100,0,0,100,30.50,30.32,4,-785,7,0.00
2013-2-8,32,30,27,-100,-100,-100,0,0,100,30.32,29.72,7,-798,14,0.00
2013-2-9,33,25,16,-100,-100,-100,0,0,100,30.37,29.80,8,-828,17,0.00
2013-2-10,39,23,6,-100,-100,-100,0,0,100,30.47,30.30,4,-954,9,0.00
2013-2-11,38,34,27,-100,-100,-100,0,0,100,30.31,29.69,0,-999,6,0.00
2013-2-12,42,36,27,-100,-100,-100,0,0,100,29.99,29.75,6,-813,11,0.00
2013-2-13,42,32,20,-100,-100,-100,0,0,100,29.98,29.72,0,-999,7,0.00
2013-2-14,44,34,26,-100,-100,-100,0,0,100,30.01,29.74,9,-859,9,0.00
2013-2-15,53,38,24,-100,-100,-100,0,0,100,30.01,29.93,12,-793,13,0.00
2013-2-16,35,31,27,-100,-100,-100,0,0,100,30.01,29.81,8,-860,12,0.00
2013-2-17,32,25,17,-100,-100,-100,0,0,100,30.06,29.75,12,-383,20,0.00
2013-2-18,34,23,13,-100,-100,-100,0,0,100,30.28,30.06,5,-865,19,0.00
2013-2-19,39,29,18,-100,-100,-100,0,0,100,30.18,29.72,6,-911,15,0.00
2013-2-20,33,27,22,-100,-100,-100,0,0,100,30.02,29.77,8,-598,12,0.00
2013-2-21,34,26,21,-100,-100,-100,0,0,100,30.34,30.01,12,-583,16,0.00
2013-2-22,36,27,17,-100,-100,-100,0,0,100,30.41,30.25,5,-920,11,0.00
2013-2-23,40,36,33,-100,-100,-100,0,0,100,30.25,29.85,0,-999,0,0.00
2013-2-24,43,35,28,-100,-100,-100,0,0,100,30.02,29.81,8,-640,16,0.00
2013-2-25,42,32,24,-100,-100,-100,0,0,100,30.26,30.02,6,-915,10,0.00
2013-2-26,43,33,22,-100,-100,-100,0,0,100,30.29,29.88,9,-508,15,0.00
2013-2-27,46,40,34,-100,-100,-100,0,0,100,29.88,29.54,12,-787,16,0.00
2013-2-28,46,38,31,-100,-100,-100,0,0,100,29.66,29.58,6,-731,9,0.00
2013-3-1,42,36,27,-100,-100,-100,0,0,100,29.83,29.66,11,-757,14,0.00
2013-3-2,37,32,27,-100,-100,-100,0,0,100,29.83,29.76,7,-737,11,0.00
2013-3-3,36,30,26,-100,-100,-100,0,0,100,29.83,29.73,9,-622,14,0.00
2013-3-4,40,32,26,-100,-100,-100,0,0,100,29.97,29.83,7,-628,12,0.00
2013-3-5,45,36,29,-100,-100,-100,0,0,100,30.05,29.97,7,-761,15,0.00
2013-3-6,39,37,33,-100,-100,-100,0,0,100,30.00,29.88,12,-185,23,0.00
2013-3-7,44,37,31,-100,-100,-100,0,0,100,30.13,30.00,11,-292,17,0.00
2013-3-8,42,33,29,-100,-100,-100,0,0,100,30.25,30.07,9,-526,15,0.00
2013-3-9,58,40,26,-100,-100,-100,0,0,100,30.32,30.24,8,-767,12,0.00
2013-3-10,56,43,24,-100,-100,-100,0,0,100,30.37,30.25,8,-840,11,0.00
2013-3-11,55,45,35,-100,-100,-100,0,0,100,30.31,30.06,17,-710,17,0.00
2013-3-12,56,51,41,-100,-100,-100,0,0,100,30.06,29.70,11,-496,20,0.00
2013-3-13,48,40,31,-100,-100,-100,0,0,100,29.93,29.84,7,-801,14,0.00
2013-3-14,42,33,28,-100,-100,-100,0,0,100,30.00,29.89,12,-454,16,0.00
2013-3-15,44,34,23,-100,-100,-100,0,0,100,30.02,29.73,11,-702,15,0.00
2013-3-16,37,31,27,-100,-100,-100,0,0,100,29.94,29.80,0,-999,4,0.00
2013-3-17,36,30,24,-100,-100,-100,0,0,100,30.32,29.94,6,-776,11,0.00
2013-3-18,34,27,20,-100,-100,-100,0,0,100,30.39,30.00,6,-845,8,0.00
2013-3-19,43,34,29,-100,-100,-100,0,0,100,30.00,29.71,6,-919,12,0.00
2013-3-20,43,34,26,-100,-100,-100,0,0,100,29.91,29.80,10,-676,15,0.00
2013-3-21,39,32,24,-100,-100,-100,0,0,100,29.86,29.67,7,-748,16,0.00
2013-3-22,39,31,22,-100,-100,-100,0,0,100,29.91,29.76,8,-794,11,0.00
2013-3-23,46,36,28,-100,-100,-100,0,0,100,29.97,29.88,7,-798,19,0.00
2013-3-24,46,37,23,-100,-100,-100,0,0,100,29.98,29.72,10,-844,16,0.00
2013-3-25,39,36,33,-100,-100,-100,0,0,100,29.72,29.51,6,-837,9,0.00
2013-3-26,50,40,29,-100,-100,-100,0,0,100,29.92,29.64,7,-869,14,0.00
2013-3-27,50,38,24,-100,-100,-100,0,0,100,30.04,29.91,10,-906,15,0.00
2013-3-28,47,39,29,-100,-100,-100,0,0,100,30.16,30.01,11,-785,11,0.00
2013-3-29,52,42,29,-100,-100,-100,0,0,100,30.19,30.11,0,-999,13,0.00
2013-3-30,58,42,25,-100,-100,-100,0,0,100,30.21,30.08,7,-879,13,0.00
2013-3-31,56,41,26,-100,-100,-100,0,0,100,30.14,29.73,6,-766,19,0.00
2013-4-1,57,45,30,-100,-100,-100,0,0,100,29.96,29.67,9,-660,18,0.00
2013-4-2,41,32,22,-100,-100,-100,0,0,100,30.11,29.96,3,-931,13,0.00
2013-4-3,46,34,25,-100,-100,-100,0,0,100,30.33,30.11,3,-951,15,0.00
2013-4-4,52,39,23,-100,-100,-100,0,0,100,30.39,30.08,8,-814,14,0.00
2013-4-5,62,46,34,-100,-100,-100,0,0,100,30.08,29.78,9,-680,14,0.00
2013-4-6,51,40,29,-100,-100,-100,0,0,100,30.31,30.04,10,-839,14,0.00
2013-4-7,62,49,33,-100,-100,-100,0,0,100,30.29,29.99,13,-531,21,0.00
2013-4-8,75,59,39,-100,-100,-100,0,0,100,30.11,29.98,5,-834,13,0.00
2013-4-9,81,65,50,-100,-100,-100,0,0,100,30.01,29.92,5,-819,11,0.00
2013-4-10,80,64,51,-100,-100,-100,0,0,100,29.97,29.81,5,-878,11,0.00
2013-4-11,58,54,42,-100,-100,-100,0,0,100,30.03,29.83,8,-618,12,0.00
2013-4-12,45,42,39,-100,-100,-100,0,0,100,30.02,29.75,8,-373,19,0.00
2013-4-13,58,46,37,-100,-100,-100,0,0,100,29.98,29.79,8,-834,13,0.00
2013-4-14,56,48,40,-100,-100,-100,0,0,100,30.22,29.98,9,-739,13,0.00
2013-4-15,62,49,39,-100,-100,-100,0,0,100,30.37,30.22,8,-714,12,0.00
2013-4-16,68,58,45,-100,-100,-100,0,0,100,30.36,30.12,8,-515,19,0.00
2013-4-17,68,59,46,-100,-100,-100,0,0,100,30.31,30.15,9,-679,12,0.00
2013-4-18,57,50,41,-100,-100,-100,0,0,100,30.33,30.09,6,-754,15,0.00
2013-4-19,74,64,52,-100,-100,-100,0,0,100,30.09,29.61,10,-292,25,0.00
2013-4-20,56,49,38,-100,-100,-100,0,0,100,30.35,29.74,8,-672,17,0.00
2013-4-21,52,42,30,-100,-100,-100,0,0,100,30.62,30.35,10,-783,15,0.00
2013-4-22,54,43,30,-100,-100,-100,0,0,100,30.64,30.50,11,-668,12,0.00
2013-4-23,49,43,36,-100,-100,-100,0,0,100,30.50,30.16,8,-544,13,0.00
2013-4-24,71,54,33,-100,-100,-100,0,0,100,30.16,29.81,11,-486,14,0.00
2013-4-25,63,52,40,-100,-100,-100,0,0,100,30.29,29.88,8,-637,13,0.00
2013-4-26,63,49,33,-100,-100,-100,0,0,100,30.44,30.29,5,-826,14,0.00
2013-4-27,69,52,33,-100,-100,-100,0,0,100,30.46,30.28,10,-965,11,0.00
2013-4-28,71,55,37,-100,-100,-100,0,0,100,30.32,30.18,9,-757,13,0.00
2013-4-29,53,52,51,-100,-100,-100,0,0,100,30.23,30.17,10,-676,13,0.00
2013-4-30,67,56,42,-100,-100,-100,0,0,100,30.35,30.21,8,-656,11,0.00
2013-5-1,69,52,33,-100,-100,-100,0,0,100,30.49,30.35,10,-869,15,0.00
2013-5-2,74,57,36,-100,-100,-100,0,0,100,30.49,30.33,5,-782,9,0.00
2013-5-3,67,56,45,-100,-100,-100,0,0,100,30.46,30.34,6,-574,11,0.00
2013-5-4,71,55,37,-100,-100,-100,0,0,100,30.39,30.20,8,-839,12,0.00
2013-5-5,68,52,37,-100,-100,-100,0,0,100,30.31,30.20,10,-796,16,0.00
2013-5-6,69,54,38,-100,-100,-100,0,0,100,30.27,30.14,7,-852,11,0.00
2013-5-7,72,60,44,-100,-100,-100,0,0,100,30.19,30.08,7,-611,13,0.00
2013-5-8,65,60,56,-100,-100,-100,0,0,100,30.12,29.96,5,-955,8,0.00
2013-5-9,67,57,52,-100,-100,-100,0,0,100,30.01,29.93,0,-999,9,0.00
2013-5-10,78,63,48,-100,-100,-100,0,0,100,30.05,29.92,6,-912,10,0.00
2013-5-11,68,63,57,-100,-100,-100,0,0,100,29.95,29.74,6,-868,8,0.00
2013-5-12,65,57,47,-100,-100,-100,0,0,100,29.97,29.73,8,-608,16,0.00
2013-5-13,54,45,35,-100,-100,-100,0,0,100,30.15,29.99,6,-777,11,0.00
2013-5-14,59,45,30,-100,-100,-100,0,0,100,30.18,30.04,7,-739,12,0.00
2013-5-15,71,55,37,-100,-100,-100,0,0,100,30.09,29.71,8,-692,21,0.00
2013-5-16,80,61,48,-100,-100,-100,0,0,100,0.00,40.00,6,-861,11,0.00
2013-5-17,70,59,49,-100,-100,-100,0,0,100,0.00,40.00,8,-844,11,0.00
2013-5-18,64,55,45,-100,-100,-100,0,0,100,0.00,40.00,5,-966,8,0.00
2013-5-19,60,57,55,-100,-100,-100,0,0,100,0.00,40.00,5,-912,8,0.00
2013-5-20,78,65,56,-100,-100,-100,0,0,100,0.00,40.00,4,-874,10,0.00
2013-5-21,86,72,58,-100,-100,-100,0,0,100,0.00,40.00,6,-544,12,0.00
2013-5-22,83,73,63,-100,-100,-100,0,0,100,0.00,40.00,5,-673,13,0.00
2013-5-23,76,67,60,-100,-100,-100,0,0,100,0.00,40.00,5,-804,10,0.00
2013-5-24,62,51,43,-100,-100,-100,0,0,100,0.00,40.00,5,-876,13,0.00
2013-5-25,58,49,42,-100,-100,-100,0,0,100,0.00,40.00,11,-406,24,0.00
2013-5-26,66,54,42,-100,-100,-100,0,0,100,0.00,40.00,8,-762,18,0.00
2013-5-27,73,55,35,-100,-100,-100,0,0,100,0.00,40.00,5,-930,12,0.00
2013-5-28,56,53,45,-100,-100,-100,0,0,100,0.00,40.00,0,-999,0,0.00
2013-5-29,80,65,55,-100,-100,-100,0,0,100,0.00,40.00,8,-748,11,0.00
2013-5-30,89,73,60,-100,-100,-100,0,0,100,0.00,40.00,5,-684,8,0.00
2013-5-31,90,75,61,-100,-100,-100,0,0,100,0.00,40.00,8,-772,10,0.00
2013-6-1,89,74,59,-100,-100,-100,0,0,100,0.00,40.00,8,-653,12,0.00
2013-6-2,85,74,66,-100,-100,-100,0,0,100,0.00,40.00,7,-688,12,0.00
2013-6-3,75,68,60,-100,-100,-100,0,0,100,0.00,40.00,7,-808,8,0.00
2013-6-4,73,61,50,-100,-100,-100,0,0,100,0.00,40.00,12,-583,12,0.00
2013-6-5,73,59,43,-100,-100,-100,0,0,100,0.00,40.00,7,-789,10,0.00
2013-6-6,68,58,48,-100,-100,-100,0,0,100,0.00,40.00,7,-924,10,0.00
2013-6-7,61,59,57,-100,-100,-100,0,0,100,0.00,40.00,3,-958,10,0.00
2013-6-8,72,64,57,-100,-100,-100,0,0,100,0.00,40.00,0,-999,6,0.00
2013-6-9,78,66,53,-100,-100,-100,0,0,100,0.00,40.00,6,-820,8,0.00
2013-6-10,65,63,60,-100,-100,-100,0,0,100,0.00,40.00,0,-999,10,0.00
2013-6-11,76,68,62,-100,-100,-100,0,0,100,0.00,40.00,7,-624,16,0.00
2013-6-12,78,67,58,-100,-100,-100,0,0,100,0.00,40.00,6,-685,12,0.00
2013-6-13,64,59,54,-100,-100,-100,0,0,100,0.00,40.00,7,-783,10,1.09
2013-6-14,71,59,51,-100,-100,-100,0,0,100,0.00,40.00,10,-889,15,0.12
2013-6-15,78,62,51,-100,-100,-100,0,0,100,0.00,40.00,5,-940,10,0.01
2013-6-16,75,65,53,-100,-100,-100,0,0,100,0.00,40.00,5,-702,11,0.00
2013-6-17,83,71,59,-100,-100,-100,0,0,100,0.00,40.00,8,-688,11,0.00
2013-6-18,80,66,58,-100,-100,-100,0,0,100,0.00,40.00,0,-999,6,0.90
2013-6-19,73,61,53,-100,-100,-100,0,0,100,0.00,40.00,4,-790,10,0.00
2013-6-20,79,63,48,-100,-100,-100,0,0,100,30.25,30.24,6,-742,9,0.00
2013-6-22,81,76,66,-100,-100,-100,0,0,100,30.27,30.13,8,-623,15,0.00
2013-6-23,87,74,61,-100,-100,-100,0,0,100,30.21,30.06,8,-623,12,0.00
2013-6-24,91,76,67,-100,-100,-100,0,0,100,30.10,30.01,5,-698,11,0.00
2013-6-25,87,74,62,-100,-100,-100,0,0,100,30.05,29.85,6,-643,10,0.15
2013-6-26,80,71,65,-100,-100,-100,0,0,100,29.90,29.83,3,-917,9,0.00
2013-6-27,84,73,63,-100,-100,-100,0,0,100,29.86,29.56,5,-808,12,0.98
2013-6-28,81,72,67,-100,-100,-100,0,0,100,29.58,29.51,7,-769,10,0.03
2013-6-29,81,70,62,-100,-100,-100,0,0,100,29.73,29.53,6,-780,9,0.00
2013-6-30,83,72,62,-100,-100,-100,0,0,100,29.93,29.73,8,-706,15,0.00
2013-7-1,74,71,68,-100,-100,-100,0,0,100,30.04,29.91,5,-912,8,1.30
2013-7-2,81,74,71,-100,-100,-100,0,0,100,30.19,30.03,6,-712,9,0.01
2013-7-3,79,74,70,-100,-100,-100,0,0,100,30.26,30.18,3,-879,10,0.00
2013-7-4,84,74,68,-100,-100,-100,0,0,100,30.27,30.19,3,-653,12,0.00
2013-7-5,88,78,69,-100,-100,-100,0,0,100,30.23,30.12,5,-653,10,0.00
2013-7-6,90,77,69,-100,-100,-100,0,0,100,30.17,30.05,5,-822,11,0.00
2013-7-7,91,78,69,-100,-100,-100,0,0,100,30.10,29.98,8,-506,12,0.00
2013-7-8,86,74,67,-100,-100,-100,0,0,100,30.08,30.00,5,-769,11,0.00
2013-7-9,84,73,64,-100,-100,-100,0,0,100,30.11,30.01,6,-798,9,0.38
2013-7-10,82,74,68,-100,-100,-100,0,0,100,30.05,29.85,5,-734,13,0.13
2013-7-11,80,73,65,-100,-100,-100,0,0,100,29.97,29.83,5,-895,6,0.00
2013-7-12,76,69,64,-100,-100,-100,0,0,100,30.06,29.97,7,-821,12,0.05
2013-7-13,77,70,64,-100,-100,-100,0,0,100,0.00,40.00,4,-900,9,0.02
2013-7-14,88,77,71,-100,-100,-100,0,0,100,0.00,40.00,7,-682,9,0.00
2013-7-15,91,76,68,-100,-100,-100,0,0,100,0.00,40.00,5,-877,8,0.00
2013-7-16,89,76,66,-100,-100,-100,0,0,100,0.00,40.00,6,-822,10,0.00
2013-7-17,90,76,67,-100,-100,-100,0,0,100,0.00,40.00,5,-879,7,0.00
2013-7-18,92,78,70,-100,-100,-100,0,0,100,0.00,40.00,3,-853,8,0.00
2013-7-19,93,81,71,-100,-100,-100,0,0,100,0.00,40.00,4,-766,11,0.00
2013-7-20,90,79,72,-100,-100,-100,0,0,100,0.00,40.00,6,-756,12,0.00
2013-7-21,84,76,69,-100,-100,-100,0,0,100,0.00,40.00,5,-730,6,0.00
2013-7-22,84,74,67,-100,-100,-100,0,0,100,0.00,40.00,3,-789,7,0.42
2013-7-23,83,74,68,-100,-100,-100,0,0,100,0.00,40.00,0,-999,7,1.27
2013-7-24,76,69,59,-100,-100,-100,0,0,100,0.00,40.00,7,-710,10,0.00
2013-7-25,68,61,55,-100,-100,-100,0,0,100,0.00,40.00,7,-845,11,0.00
2013-7-26,80,65,56,-100,-100,-100,0,0,100,0.00,40.00,3,-944,8,0.00
2013-7-27,81,70,55,-100,-100,-100,0,0,100,0.00,40.00,4,-821,10,0.00
2013-7-28,76,68,64,-100,-100,-100,0,0,100,0.00,40.00,0,-999,10,1.27
2013-7-29,79,68,58,-100,-100,-100,0,0,100,0.00,40.00,7,-712,10,0.00
2013-7-30,76,65,54,-100,-100,-100,0,0,100,0.00,40.00,3,-949,7,0.00
2013-7-31,78,66,54,-100,-100,-100,0,0,100,0.00,40.00,5,-906,9,0.00
2013-8-1,67,64,61,-100,-100,-100,0,0,100,0.00,40.00,0,-999,7,0.40
2013-8-2,81,68,59,-100,-100,-100,0,0,100,0.00,40.00,5,-915,12,0.00
2013-8-3,76,66,60,-100,-100,-100,0,0,100,0.00,40.00,6,-824,10,0.37
2013-8-4,74,64,56,-100,-100,-100,0,0,100,0.00,40.00,6,-856,12,0.00
2013-8-5,75,62,50,-100,-100,-100,0,0,100,0.00,40.00,6,-902,8,0.00
2013-8-6,78,66,51,-100,-100,-100,0,0,100,0.00,40.00,3,-912,9,0.00
2013-8-7,74,68,63,-100,-100,-100,0,0,100,0.00,40.00,9,-755,9,0.00
2013-8-8,80,72,68,-100,-100,-100,0,0,100,0.00,40.00,5,-906,9,0.22
2013-8-9,81,74,69,-100,-100,-100,0,0,100,0.00,40.00,7,-851,10,1.41
2013-8-10,77,68,61,-100,-100,-100,0,0,100,0.00,40.00,0,-999,8,0.18
2013-8-11,75,65,55,-100,-100,-100,0,0,100,0.00,40.00,4,-899,6,0.02
2013-8-12,78,68,64,-100,-100,-100,0,0,100,0.00,40.00,3,-892,6,0.00
2013-8-13,75,68,63,-100,-100,-100,0,0,100,0.00,40.00,0,-999,0,0.50
2013-8-14,71,61,52,-100,-100,-100,0,0,100,0.00,40.00,6,-832,14,0.00
2013-8-15,72,58,47,-100,-100,-100,0,0,100,0.00,40.00,6,-880,9,0.00
2013-8-16,77,62,50,-100,-100,-100,0,0,100,0.00,40.00,3,-952,5,0.00
2013-8-17,78,64,52,-100,-100,-100,0,0,100,0.00,40.00,5,-910,8,0.00
2013-8-18,70,64,59,-100,-100,-100,0,0,100,0.00,40.00,0,-999,0,0.00
2013-8-19,75,66,58,-100,-100,-100,0,0,100,0.00,40.00,0,-999,0,0.00
2013-8-20,62,61,61,-100,-100,-100,0,0,100,0.00,40.00,0,-999,0,0.00
2013-8-21,83,75,66,-100,-100,-100,0,0,100,0.00,40.00,4,-893,6,0.00
2013-8-22,78,70,65,-100,-100,-100,0,0,100,0.00,40.00,8,-868,8,0.00
2013-8-23,76,66,58,-100,-100,-100,0,0,100,0.00,40.00,0,-999,6,0.00
2013-8-24,75,62,53,-100,-100,-100,0,0,100,0.00,40.00,6,-700,10,0.00
2013-8-25,78,63,48,-100,-100,-100,0,0,100,0.00,40.00,7,-798,10,0.00
2013-8-26,77,67,59,-100,-100,-100,0,0,100,0.00,40.00,8,-868,10,0.16
2013-8-27,82,72,67,-100,-100,-100,0,0,100,0.00,40.00,6,-732,8,0.01
2013-8-28,72,71,69,-100,-100,-100,0,0,100,0.00,40.00,0,-999,0,0.19
2013-8-29,77,70,67,-100,-100,-100,0,0,100,0.00,40.00,3,-954,6,0.03
2013-8-30,80,72,65,-100,-100,-100,0,0,100,0.00,40.00,7,-862,11,0.00
2013-8-31,84,74,69,-100,-100,-100,0,0,100,0.00,40.00,5,-955,8,0.00
2013-9-1,82,74,70,-100,-100,-100,0,0,100,0.00,40.00,3,-952,8,0.02
2013-9-2,79,72,69,-100,-100,-100,0,0,100,0.00,40.00,0,-999,10,0.18
2013-9-3,76,66,59,-100,-100,-100,0,0,100,0.00,40.00,4,-943,9,0.07
2013-9-4,80,66,54,-100,-100,-100,0,0,100,0.00,40.00,6,-887,8,0.00
2013-9-5,75,63,50,-100,-100,-100,0,0,100,0.00,40.00,3,-859,13,0.00
2013-9-6,68,55,44,-100,-100,-100,0,0,100,0.00,40.00,0,-999,9,0.00
2013-9-7,76,59,43,-100,-100,-100,0,0,100,0.00,40.00,9,-781,10,0.00
2013-9-8,80,64,52,-100,-100,-100,0,0,100,0.00,40.00,6,-786,15,0.00
2013-9-9,71,58,43,-100,-100,-100,0,0,100,0.00,40.00,5,-912,15,0.00
2013-9-10,83,72,64,-100,-100,-100,0,0,100,0.00,40.00,3,-790,8,0.00
2013-9-11,91,77,67,-100,-100,-100,0,0,100,0.00,40.00,6,-743,11,0.00
2013-9-12,81,72,67,-100,-100,-100,0,0,100,0.00,40.00,3,-916,11,0.33
2013-9-13,72,64,53,-100,-100,-100,0,0,100,0.00,40.00,10,-737,16,0.05
2013-9-14,61,54,43,-100,-100,-100,0,0,100,0.00,40.00,7,-874,13,0.00
2013-9-15,69,50,39,-100,-100,-100,0,0,100,0.00,40.00,5,-945,7,0.00
2013-9-16,71,58,50,-100,-100,-100,0,0,100,0.00,40.00,3,-862,10,0.05
2013-9-17,62,51,40,-100,-100,-100,0,0,100,0.00,40.00,7,-790,11,0.00
2013-9-18,47,40,38,-100,-100,-100,0,0,100,0.00,40.00,0,-999,0,0.00
2013-9-19,73,55,41,-100,-100,-100,0,0,100,0.00,40.00,5,-908,7,0.00
2013-9-20,77,60,44,-100,-100,-100,0,0,100,0.00,40.00,6,-957,9,0.00
2013-9-21,75,63,49,-100,-100,-100,0,0,100,0.00,40.00,10,-664,13,0.45
2013-9-22,65,58,52,-100,-100,-100,0,0,100,0.00,40.00,6,-816,13,0.02
2013-9-23,64,53,42,-100,-100,-100,0,0,100,0.00,40.00,9,-693,12,0.00
2013-9-24,71,50,37,-100,-100,-100,0,0,100,0.00,40.00,5,-841,8,0.00
2013-9-25,71,54,40,-100,-100,-100,0,0,100,0.00,40.00,0,-999,11,0.00
2013-9-26,68,55,43,-100,-100,-100,0,0,100,0.00,40.00,3,-912,8,0.00
2013-9-27,69,56,44,-100,-100,-100,0,0,100,0.00,40.00,5,-874,9,0.00
2013-9-28,71,59,49,-100,-100,-100,0,0,100,0.00,40.00,3,-825,8,0.00
2013-9-29,70,56,44,-100,-100,-100,0,0,100,0.00,40.00,4,-812,7,0.00
2013-9-30,71,56,45,-100,-100,-100,0,0,100,0.00,40.00,4,-954,7,0.00
2013-10-1,62,57,53,-100,-100,-100,0,0,100,29.97,29.95,0,-999,0,0.00
2013-10-2,82,64,47,-100,-100,-100,0,0,100,30.04,29.93,7,-821,11,0.00
2013-10-3,76,62,49,-100,-100,-100,0,0,100,30.13,30.04,0,-999,7,0.00
2013-10-4,83,66,55,-100,-100,-100,0,0,100,30.08,29.98,6,-945,9,0.02
2013-10-5,80,68,61,-100,-100,-100,0,0,100,30.10,30.01,5,-874,8,0.03
2013-10-6,68,66,64,-100,-100,-100,0,0,100,30.08,29.99,5,-874,10,0.08
2013-10-7,73,64,50,-100,-100,-100,0,0,100,30.00,29.73,12,-737,23,0.59
2013-10-8,67,53,43,-100,-100,-100,0,0,100,30.34,30.00,6,-832,10,0.00
2013-10-9,60,50,40,-100,-100,-100,0,0,100,30.40,30.29,6,-828,12,0.00
2013-10-10,57,53,48,-100,-100,-100,0,0,100,30.28,30.09,8,-572,13,0.00
2013-10-11,64,59,55,-100,-100,-100,0,0,100,30.10,30.02,7,-581,14,0.01
2013-10-12,71,62,55,-100,-100,-100,0,0,100,30.27,30.08,10,-520,13,0.00
2013-10-13,63,58,52,-100,-100,-100,0,0,100,30.37,30.27,7,-263,12,0.00
2013-10-14,66,53,41,-100,-100,-100,0,0,100,30.36,30.22,0,-999,6,0.00
2013-10-15,72,55,42,-100,-100,-100,0,0,100,30.26,30.10,5,-781,8,0.00
2013-10-16,63,54,45,-100,-100,-100,0,0,100,30.12,29.91,3,-954,5,0.00
2013-10-17,73,64,58,-100,-100,-100,0,0,100,29.91,29.67,7,-688,12,0.00
2013-10-18,66,57,42,-100,-100,-100,0,0,100,30.00,29.67,9,-628,12,0.00
2013-10-19,63,50,36,-100,-100,-100,0,0,100,30.00,29.76,5,-862,15,0.03
2013-10-20,61,49,37,-100,-100,-100,0,0,100,30.07,29.77,5,-832,10,0.00
2013-10-21,66,48,32,-100,-100,-100,0,0,100,30.15,29.97,9,-811,13,0.00
2013-10-22,59,48,36,-100,-100,-100,0,0,100,29.97,29.76,5,-784,11,0.00
2013-10-23,53,40,31,-100,-100,-100,0,0,100,29.84,29.64,0,-999,8,0.00
2013-10-24,52,39,29,-100,-100,-100,0,0,100,30.01,29.78,0,-999,12,0.00
2013-10-25,51,39,27,-100,-100,-100,0,0,100,30.22,30.01,3,-955,10,0.00
2013-10-26,53,39,25,-100,-100,-100,0,0,100,30.22,29.88,9,-788,24,0.00
2013-10-27,54,45,33,-100,-100,-100,0,0,100,30.13,29.86,7,-771,10,0.00
2013-10-28,60,42,27,-100,-100,-100,0,0,100,30.32,30.13,6,-828,11,0.00
2013-10-29,53,43,33,-100,-100,-100,0,0,100,30.42,30.32,3,-957,9,0.00
2013-10-30,55,43,31,-100,-100,-100,0,0,100,30.35,30.17,0,-999,6,0.00
2013-10-31,60,53,43,-100,-100,-100,0,0,100,30.22,29.80,5,-910,9,0.06
2013-11-1,68,60,45,-100,-100,-100,0,0,100,29.73,29.52,13,-351,20,0.19
2013-11-2,65,51,44,-100,-100,-100,0,0,100,29.74,29.64,3,-950,10,0.00
2013-11-3,49,40,29,-100,-100,-100,0,0,100,30.45,29.84,12,-686,12,0.00
2013-11-4,44,32,22,-100,-100,-100,0,0,100,30.63,30.45,10,-832,14,0.00
2013-11-5,53,41,27,-100,-100,-100,0,0,100,30.63,30.46,3,-957,8,0.00
2013-11-6,59,51,43,-100,-100,-100,0,0,100,30.47,30.05,6,-828,12,0.00
2013-11-7,58,48,33,-100,-100,-100,0,0,100,30.05,29.77,5,-634,13,0.16
2013-11-8,46,39,30,-100,-100,-100,0,0,100,30.22,29.95,7,-824,13,0.00
2013-11-9,48,37,24,-100,-100,-100,0,0,100,30.28,29.97,7,-873,13,0.00
2013-11-10,58,45,32,-100,-100,-100,0,0,100,30.07,29.83,10,-730,14,0.00
2013-11-11,50,44,34,-100,-100,-100,0,0,100,30.20,29.95,6,-832,13,0.00
2013-11-12,46,33,21,-100,-100,-100,0,0,100,30.30,29.94,9,-781,15,0.00
2013-11-13,38,28,21,-100,-100,-100,0,0,100,30.38,30.25,7,-776,14,0.00
2013-11-14,51,35,24,-100,-100,-100,0,0,100,30.25,30.14,8,-874,16,0.00
2013-11-15,55,36,23,-100,-100,-100,0,0,100,30.23,30.14,0,-999,10,0.00
2013-11-16,59,44,33,-100,-100,-100,0,0,100,30.31,30.22,3,-957,9,0.00
2013-11-17,64,57,45,-100,-100,-100,0,0,100,30.25,29.73,5,-717,16,0.00
2013-11-18,62,55,44,-100,-100,-100,0,0,100,29.81,29.60,8,-545,16,0.56
2013-11-19,46,40,29,-100,-100,-100,0,0,100,30.37,29.81,8,-606,17,0.00
2013-11-20,43,31,22,-100,-100,-100,0,0,100,30.60,30.37,7,-956,16,0.00
2013-11-21,48,35,19,-100,-100,-100,0,0,100,30.60,30.36,0,-999,7,0.00
2013-11-22,53,47,42,-100,-100,-100,0,0,100,30.36,29.94,0,-999,8,0.00
2013-11-23,48,37,25,-100,-100,-100,0,0,100,30.10,29.92,11,-664,13,0.00
2013-11-24,27,22,19,-100,-100,-100,0,0,100,30.37,30.05,11,-737,17,0.00
2013-11-25,33,25,13,-100,-100,-100,0,0,100,30.45,30.29,5,-932,11,0.00
2013-11-26,36,32,30,-100,-100,-100,0,0,100,30.29,29.73,0,-999,6,0.57
2013-11-27,41,37,29,-100,-100,-100,0,0,100,29.78,29.41,9,-780,18,0.96
2013-11-28,33,28,23,-100,-100,-100,0,0,100,30.43,29.78,8,-803,14,0.00
2013-11-29,35,27,20,-100,-100,-100,0,0,100,30.71,30.43,5,-951,10,0.00
2013-11-30,33,25,13,-100,-100,-100,0,0,100,30.72,30.36,0,-999,7,0.00
2013-12-1,45,33,22,-100,-100,-100,0,0,100,30.36,30.00,8,-912,5,0.00
2013-12-2,44,34,26,-100,-100,-100,0,0,100,30.00,29.87,0,-999,0,0.00
2013-12-3,51,35,26,-100,-100,-100,0,0,100,30.00,29.87,2,-957,7,0.00
2013-12-4,49,39,26,-100,-100,-100,0,0,100,30.09,30.00,3,-956,5,0.00
2013-12-5,53,47,42,-100,-100,-100,0,0,100,30.09,29.92,0,-999,0,0.00
2013-12-6,50,42,34,-100,-100,-100,0,0,100,30.13,29.87,0,-999,8,0.68
2013-12-7,36,31,24,-100,-100,-100,0,0,100,30.51,30.10,7,-790,10,0.00
2013-12-8,29,25,20,-100,-100,-100,0,0,100,30.56,30.34,3,-955,7,0.01
2013-12-9,33,31,27,-100,-100,-100,0,0,100,30.34,29.97,0,-999,4,0.13
2013-12-10,31,28,20,-100,-100,-100,0,0,100,30.10,29.89,0,-999,0,0.05
2013-12-11,32,22,15,-100,-100,-100,0,0,100,30.29,30.10,6,-865,13,0.00
2013-12-12,26,20,15,-100,-100,-100,0,0,100,30.34,30.13,7,-824,11,0.00
2013-12-13,34,22,9,-100,-100,-100,0,0,100,30.29,30.10,8,-901,15,0.00
2013-12-14,25,20,15,-100,-100,-100,0,0,100,30.43,29.81,6,-694,15,0.49
2013-12-15,37,28,16,-100,-100,-100,0,0,100,29.81,29.57,7,-622,15,0.16
2013-12-16,29,21,7,-100,-100,-100,0,0,100,30.19,29.81,6,-955,10,0.00
2013-12-17,20,15,7,-100,-100,-100,0,0,100,30.19,29.93,0,-999,4,0.10
2013-12-18,34,19,4,-100,-100,-100,0,0,100,30.15,29.93,0,-999,9,0.00
2013-12-19,38,22,8,-100,-100,-100,0,0,100,30.15,30.02,5,-954,9,0.00
2013-12-20,46,34,26,-100,-100,-100,0,0,100,30.09,29.96,7,-915,10,0.00
2013-12-21,52,38,31,-100,-100,-100,0,0,100,29.98,29.89,3,-954,7,0.00
2013-12-22,58,50,35,-100,-100,-100,0,0,100,29.95,29.78,8,-782,12,0.04
2013-12-23,52,46,33,-100,-100,-100,0,0,100,30.16,29.93,5,-953,10,0.79
2013-12-24,37,30,21,-100,-100,-100,0,0,100,30.35,30.11,7,-694,16,0.00
2013-12-25,26,21,13,-100,-100,-100,0,0,100,30.50,30.35,7,-828,11,0.00
2013-12-26,30,22,17,-100,-100,-100,0,0,100,30.38,30.17,5,-946,7,0.00
2013-12-27,38,25,16,-100,-100,-100,0,0,100,30.33,30.24,7,-915,10,0.00
2013-12-28,49,30,17,-100,-100,-100,0,0,100,30.27,30.06,8,-915,17,0.00
2013-12-29,38,34,27,-100,-100,-100,0,0,100,30.06,29.50,3,-957,8,0.85
2013-12-30,38,30,18,-100,-100,-100,0,0,100,30.16,29.71,7,-706,10,0.00
2013-12-31,29,21,15,-100,-100,-100,0,0,100,30.26,30.03,7,-781,13,0.00
2014-1-1,31,23,13,-100,-100,-100,0,0,100,30.37,30.21,3,-912,8,0.00
2014-1-2,26,19,12,-100,-100,-100,0,0,100,30.21,29.71,9,-409,16,0.17